Time;durP1;ratioP1;P1;durP2;ratioP2;P2;SDS_P1;SDS_P2;PMS_P1;PMS_P2;Temp;Humidity;BMP_temperature;BMP_pressure;BME280_temperature;BME280_humidity;BME280_pressure;Samples;Min_cycle;Max_cycle;Signal;HPM_P1;HPM_P2
2024/01/19 00:01:56;;;;;;;69.65;26.55;;;;;;;-4.70;100.00;101060.47;5015757;28;20029;-75
2024/01/19 00:04:21;;;;;;;59.95;26.52;;;;;;;-4.72;100.00;101069.00;5031176;28;20399;-75
2024/01/19 00:06:47;;;;;;;63.50;27.08;;;;;;;-4.76;100.00;101069.97;5027125;28;20029;-75
2024/01/19 00:09:13;;;;;;;57.10;26.40;;;;;;;-4.79;100.00;101077.66;5012997;28;20041;-75
2024/01/19 00:11:39;;;;;;;59.30;25.40;;;;;;;-4.81;100.00;101064.22;5014789;28;20160;-75
2024/01/19 00:14:04;;;;;;;61.13;25.15;;;;;;;-4.81;100.00;101079.41;5017745;28;20034;-76
2024/01/19 00:16:30;;;;;;;58.80;25.33;;;;;;;-4.85;100.00;101076.16;5014686;28;20034;-75
2024/01/19 00:18:55;;;;;;;57.65;25.45;;;;;;;-4.87;100.00;101074.56;5011376;28;20040;-75
2024/01/19 00:21:20;;;;;;;60.53;25.50;;;;;;;-4.88;100.00;101078.78;5030159;28;20041;-75
2024/01/19 00:23:47;;;;;;;55.92;26.40;;;;;;;-4.78;100.00;101079.31;5028042;28;20045;-75
2024/01/19 00:26:12;;;;;;;53.95;24.25;;;;;;;-4.69;100.00;101086.59;5012609;28;20116;-75
2024/01/19 00:28:37;;;;;;;57.67;25.35;;;;;;;-4.67;100.00;101092.44;5009990;28;20040;-76
2024/01/19 00:31:03;;;;;;;60.28;24.15;;;;;;;-4.74;100.00;101091.81;5028132;28;20030;-76
2024/01/19 00:33:28;;;;;;;60.42;24.02;;;;;;;-4.61;100.00;101102.38;5008565;28;20037;-75
2024/01/19 00:35:54;;;;;;;62.22;25.40;;;;;;;-4.71;100.00;101106.91;5027318;28;20297;-76
2024/01/19 00:38:20;;;;;;;59.90;25.38;;;;;;;-4.64;100.00;101105.00;5030118;28;20045;-75
2024/01/19 00:40:45;;;;;;;57.47;25.40;;;;;;;-4.57;100.00;101110.69;5015360;28;20048;-75
2024/01/19 00:43:11;;;;;;;65.90;26.92;;;;;;;-4.63;100.00;101105.81;5012399;28;20049;-76
2024/01/19 00:45:36;;;;;;;63.85;28.15;;;;;;;-4.63;100.00;101099.06;5027174;28;20049;-76
2024/01/19 00:48:02;;;;;;;71.13;27.65;;;;;;;-4.65;100.00;101117.69;5028608;28;20038;-76
2024/01/19 00:50:29;;;;;;;62.17;27.13;;;;;;;-4.66;100.00;101111.81;5029054;28;20034;-76
2024/01/19 00:52:54;;;;;;;73.40;27.25;;;;;;;-4.68;100.00;101117.81;5015376;28;20029;-75
2024/01/19 00:55:20;;;;;;;68.72;27.70;;;;;;;-4.68;100.00;101120.34;5027644;28;20040;-75
2024/01/19 00:57:45;;;;;;;68.50;27.08;;;;;;;-4.68;100.00;101121.16;5010573;28;20048;-76
2024/01/19 01:00:11;;;;;;;79.18;30.02;;;;;;;-4.60;100.00;101116.66;5010380;28;20079;-76
2024/01/19 01:02:36;;;;;;;80.07;29.17;;;;;;;-4.59;100.00;101117.50;5009384;28;20034;-76
2024/01/19 01:05:02;;;;;;;84.65;30.60;;;;;;;-4.47;100.00;101116.25;4993813;28;20038;-76
2024/01/19 01:07:27;;;;;;;76.07;28.35;;;;;;;-4.42;100.00;101116.94;4990266;28;22073;-76
2024/01/19 01:09:53;;;;;;;91.07;32.65;;;;;;;-4.45;100.00;101127.97;5011603;28;20037;-76
2024/01/19 01:12:18;;;;;;;88.20;30.70;;;;;;;-4.41;100.00;101128.69;5028661;28;20591;-75
2024/01/19 01:14:44;;;;;;;90.72;30.52;;;;;;;-4.39;100.00;101134.53;5026109;28;20044;-76
2024/01/19 01:17:09;;;;;;;103.07;30.33;;;;;;;-4.31;100.00;101141.00;5009579;28;20029;-76
2024/01/19 01:19:35;;;;;;;92.47;32.15;;;;;;;-4.22;100.00;101134.81;5007121;28;20045;-76
2024/01/19 01:22:00;;;;;;;85.50;31.67;;;;;;;-4.25;100.00;101139.97;5009236;28;20470;-76
2024/01/19 01:24:25;;;;;;;82.47;28.67;;;;;;;-4.12;100.00;101160.66;5026630;28;20037;-76
2024/01/19 01:26:51;;;;;;;87.47;29.52;;;;;;;-4.17;100.00;101170.09;5009275;28;20033;-76
2024/01/19 01:29:17;;;;;;;88.25;31.70;;;;;;;-4.12;100.00;101161.47;5025480;28;20037;-76
2024/01/19 01:31:42;;;;;;;93.90;31.33;;;;;;;-4.13;100.00;101175.00;5026457;28;20033;-76
2024/01/19 01:34:08;;;;;;;100.35;31.33;;;;;;;-4.13;100.00;101184.31;5006922;28;20037;-76
2024/01/19 01:36:33;;;;;;;91.03;29.73;;;;;;;-4.07;100.00;101186.63;5024762;28;20464;-75
2024/01/19 01:38:59;;;;;;;95.22;31.50;;;;;;;-4.00;100.00;101185.53;5025982;28;20124;-76
2024/01/19 01:41:24;;;;;;;92.75;30.65;;;;;;;-3.96;100.00;101183.72;5003390;28;20062;-75
2024/01/19 01:43:50;;;;;;;90.82;29.83;;;;;;;-3.99;100.00;101176.25;5006760;28;20049;-76
2024/01/19 01:46:15;;;;;;;106.43;30.70;;;;;;;-3.94;100.00;101184.50;5015397;28;20130;-76
2024/01/19 01:48:41;;;;;;;102.05;29.92;;;;;;;-3.82;100.00;101194.22;5013554;28;20795;-76
2024/01/19 01:51:08;;;;;;;107.55;32.10;;;;;;;-3.65;100.00;101200.41;5006655;28;20037;-76
2024/01/19 01:53:35;;;;;;;102.72;32.35;;;;;;;-3.69;100.00;101211.53;5009936;28;20076;-75
2024/01/19 01:56:01;;;;;;;99.35;31.25;;;;;;;-3.66;100.00;101213.97;5028906;28;20037;-76
2024/01/19 01:58:26;;;;;;;109.65;32.30;;;;;;;-3.73;100.00;101219.25;5028672;28;20124;-75
2024/01/19 02:00:52;;;;;;;122.43;33.03;;;;;;;-3.64;100.00;101222.34;5022884;28;20041;-77
2024/01/19 02:03:18;;;;;;;102.60;33.60;;;;;;;-3.68;100.00;101219.06;5029369;28;20055;-75
2024/01/19 02:05:44;;;;;;;115.13;31.23;;;;;;;-3.54;100.00;101223.69;5026630;28;20103;-76
2024/01/19 02:08:09;;;;;;;107.07;31.15;;;;;;;-3.61;100.00;101205.31;5008218;28;20044;-76
2024/01/19 02:10:35;;;;;;;101.20;31.65;;;;;;;-3.63;100.00;101224.00;5030324;28;20033;-76
2024/01/19 02:13:00;;;;;;;115.80;34.03;;;;;;;-3.56;100.00;101225.41;5009653;28;20459;-76
2024/01/19 02:15:26;;;;;;;108.72;32.10;;;;;;;-3.61;100.00;101229.84;5028190;28;20033;-76
2024/01/19 02:17:52;;;;;;;110.97;32.78;;;;;;;-3.61;100.00;101234.91;5009655;28;20033;-76
2024/01/19 02:20:18;;;;;;;110.10;32.50;;;;;;;-3.53;100.00;101243.88;5027642;28;20041;-76
2024/01/19 02:22:45;;;;;;;116.57;34.30;;;;;;;-3.55;100.00;101240.56;5025762;28;20041;-76
2024/01/19 02:25:12;;;;;;;114.03;33.55;;;;;;;-3.41;100.00;101245.19;5007601;28;20128;-76
2024/01/19 02:27:37;;;;;;;108.32;31.80;;;;;;;-3.48;100.00;101243.72;5026756;28;20030;-76
2024/01/19 02:30:06;;;;;;;103.00;31.27;;;;;;;-3.39;100.00;101247.63;4993010;28;20052;-76
2024/01/19 02:32:32;;;;;;;123.57;35.75;;;;;;;-3.27;100.00;101248.91;4995516;28;20065;-76
2024/01/19 02:34:57;;;;;;;115.88;33.15;;;;;;;-3.34;100.00;101238.16;5008623;28;20030;-76
2024/01/19 02:37:23;;;;;;;98.63;31.02;;;;;;;-3.27;100.00;101241.31;5027577;28;20249;-76
2024/01/19 02:39:49;;;;;;;105.82;31.42;;;;;;;-3.33;100.00;101250.78;5029084;28;20041;-76
2024/01/19 02:42:15;;;;;;;123.30;32.92;;;;;;;-3.28;100.00;101250.59;4993989;28;20032;-76
2024/01/19 02:44:40;;;;;;;111.53;32.10;;;;;;;-3.23;100.00;101247.91;5027378;28;20044;-76
2024/01/19 02:47:06;;;;;;;124.03;34.90;;;;;;;-3.16;100.00;101262.84;5011410;28;20029;-76
2024/01/19 02:49:31;;;;;;;113.10;33.67;;;;;;;-3.20;100.00;101257.94;5009963;28;20033;-76
2024/01/19 02:51:56;;;;;;;105.55;31.40;;;;;;;-3.27;100.00;101251.44;5028798;28;20042;-76
2024/01/19 02:54:22;;;;;;;117.35;33.85;;;;;;;-3.28;100.00;101258.22;5031118;28;20052;-76
2024/01/19 02:56:47;;;;;;;120.40;32.97;;;;;;;-3.35;100.00;101256.81;5024504;28;20030;-75
2024/01/19 02:59:13;;;;;;;112.22;33.38;;;;;;;-3.25;100.00;101264.91;5024866;28;20037;-76
2024/01/19 03:01:38;;;;;;;125.88;33.92;;;;;;;-3.26;100.00;101263.22;5023712;28;20129;-76
2024/01/19 03:04:05;;;;;;;117.18;33.60;;;;;;;-3.20;100.00;101279.06;5024571;28;20056;-76
2024/01/19 03:06:30;;;;;;;120.10;32.38;;;;;;;-3.18;100.00;101284.09;5026463;28;20026;-76
2024/01/19 03:08:56;;;;;;;115.35;34.00;;;;;;;-3.20;100.00;101286.69;5009544;28;20096;-76
2024/01/19 03:11:21;;;;;;;115.45;34.63;;;;;;;-3.24;100.00;101284.31;5010357;28;20095;-76
2024/01/19 03:13:49;;;;;;;126.45;34.60;;;;;;;-3.24;100.00;101280.06;5023611;28;20503;-76
2024/01/19 03:16:15;;;;;;;118.75;33.50;;;;;;;-3.20;100.00;101284.16;5023456;28;20661;-76
2024/01/19 03:18:40;;;;;;;117.63;33.45;;;;;;;-3.13;100.00;101289.81;5026316;28;20053;-76
2024/01/19 03:21:06;;;;;;;117.68;35.05;;;;;;;-3.16;100.00;101284.88;5010326;28;20400;-76
2024/01/19 03:23:31;;;;;;;117.00;32.88;;;;;;;-3.11;100.00;101287.22;5027138;28;20041;-76
2024/01/19 03:25:56;;;;;;;119.15;32.95;;;;;;;-3.09;100.00;101288.81;5010169;28;20032;-76
2024/01/19 03:28:22;;;;;;;105.82;31.65;;;;;;;-3.04;100.00;101294.56;5024731;28;20045;-76
2024/01/19 03:30:48;;;;;;;119.90;31.63;;;;;;;-3.11;100.00;101288.03;5006812;28;20041;-76
2024/01/19 03:33:13;;;;;;;124.55;32.90;;;;;;;-3.03;100.00;101287.75;5008556;28;20048;-75
2024/01/19 03:35:38;;;;;;;112.68;32.85;;;;;;;-3.09;100.00;101288.00;5025965;28;20041;-76
2024/01/19 03:38:04;;;;;;;118.15;33.53;;;;;;;-3.16;100.00;101287.41;5022681;28;20030;-76
2024/01/19 03:40:29;;;;;;;113.00;32.97;;;;;;;-3.08;100.00;101285.41;5010398;28;20503;-76
2024/01/19 03:42:55;;;;;;;127.53;33.92;;;;;;;-3.13;100.00;101280.50;5007963;28;20053;-76
2024/01/19 03:45:20;;;;;;;116.72;31.98;;;;;;;-3.17;100.00;101280.66;5026095;28;20044;-76
2024/01/19 03:47:46;;;;;;;123.20;34.65;;;;;;;-3.11;100.00;101288.03;5008379;28;20036;-75
2024/01/19 03:50:12;;;;;;;107.82;31.23;;;;;;;-3.12;100.00;101291.47;5012001;28;20044;-73
2024/01/19 03:52:37;;;;;;;138.88;36.00;;;;;;;-3.06;100.00;101298.88;5013640;28;20446;-73
2024/01/19 03:55:07;;;;;;;140.32;41.03;;;;;;;-2.92;100.00;101305.13;5008562;28;20064;-74
2024/01/19 03:57:32;;;;;;;139.35;38.95;;;;;;;-2.88;100.00;101314.28;5027202;28;20030;-73
2024/01/19 03:59:58;;;;;;;111.95;31.50;;;;;;;-2.89;100.00;101317.72;5022580;28;20526;-73
2024/01/19 04:02:23;;;;;;;114.45;33.47;;;;;;;-2.94;100.00;101313.66;5011742;28;20026;-73
2024/01/19 04:04:49;;;;;;;106.95;32.97;;;;;;;-2.95;100.00;101313.69;5008838;28;20041;-73
2024/01/19 04:07:14;;;;;;;128.50;34.28;;;;;;;-3.00;100.00;101311.31;5006946;28;20033;-74
2024/01/19 04:09:41;;;;;;;117.22;32.80;;;;;;;-2.89;100.00;101310.94;5026698;28;20399;-73
2024/01/19 04:12:16;;;;;;;119.75;34.17;;;;;;;-2.89;100.00;101310.09;5008167;28;20099;-76
2024/01/19 04:14:43;;;;;;;121.18;34.25;;;;;;;-2.87;100.00;101318.50;5009384;28;20111;-75
2024/01/19 04:17:10;;;;;;;109.05;32.63;;;;;;;-2.74;100.00;101310.34;5007137;28;20026;-75
2024/01/19 04:19:40;;;;;;;113.60;32.97;;;;;;;-2.74;100.00;101310.34;5009411;28;20072;-75
2024/01/19 04:22:05;;;;;;;129.20;34.42;;;;;;;-2.73;100.00;101306.13;5009810;28;20037;-75
2024/01/19 04:24:31;;;;;;;109.50;31.95;;;;;;;-2.76;100.00;101311.31;5025164;28;20082;-76
2024/01/19 04:26:57;;;;;;;116.88;34.50;;;;;;;-2.63;100.00;101309.94;5007335;28;20097;-75
2024/01/19 04:29:22;;;;;;;114.85;33.63;;;;;;;-2.60;100.00;101309.00;5007886;28;20037;-76
2024/01/19 04:31:48;;;;;;;110.55;31.92;;;;;;;-2.59;100.00;101308.13;5033292;28;20064;-76
2024/01/19 04:34:14;;;;;;;121.20;31.63;;;;;;;-2.47;100.00;101309.34;4994704;28;20045;-76
2024/01/19 04:36:39;;;;;;;109.53;33.15;;;;;;;-2.68;100.00;101311.00;5011895;28;20038;-76
2024/01/19 04:39:05;;;;;;;109.57;32.53;;;;;;;-2.72;100.00;101307.75;5027154;28;20037;-75
2024/01/19 04:41:32;;;;;;;102.28;32.30;;;;;;;-2.64;100.00;101310.81;5010869;28;20030;-75
2024/01/19 04:43:57;;;;;;;118.38;34.22;;;;;;;-2.64;100.00;101318.44;5028695;28;20041;-76
2024/01/19 04:46:22;;;;;;;120.72;34.20;;;;;;;-2.65;100.00;101321.88;5013022;28;20033;-76
2024/01/19 04:48:48;;;;;;;115.05;34.83;;;;;;;-2.64;100.00;101323.53;5012072;28;20038;-76
2024/01/19 04:51:13;;;;;;;100.50;30.83;;;;;;;-2.68;100.00;101323.72;5013081;28;20038;-76
2024/01/19 04:53:39;;;;;;;110.78;36.83;;;;;;;-2.52;100.00;101327.31;5010543;28;20038;-76
2024/01/19 04:56:06;;;;;;;114.57;33.53;;;;;;;-2.52;100.00;101336.63;5012895;28;20029;-75
2024/01/19 04:58:33;;;;;;;110.65;32.95;;;;;;;-2.40;100.00;101341.25;5030472;28;20037;-76
2024/01/19 05:00:59;;;;;;;112.15;32.28;;;;;;;-2.43;100.00;101344.75;5012492;28;20630;-76
2024/01/19 05:03:25;;;;;;;98.60;31.00;;;;;;;-2.47;100.00;101344.91;5029233;28;20041;-75
2024/01/19 05:05:50;;;;;;;99.68;31.88;;;;;;;-2.34;100.00;101351.19;5010377;28;20053;-76
2024/01/19 05:08:16;;;;;;;96.47;30.73;;;;;;;-2.38;100.00;101362.34;5009980;28;20056;-76
2024/01/19 05:10:41;;;;;;;89.28;30.33;;;;;;;-2.30;100.00;101355.25;5028032;28;20044;-76
2024/01/19 05:13:07;;;;;;;92.47;29.13;;;;;;;-2.34;100.00;101356.25;5027856;28;20046;-76
2024/01/19 05:15:32;;;;;;;102.78;31.05;;;;;;;-2.33;100.00;101352.84;5030516;28;20484;-76
2024/01/19 05:17:57;;;;;;;88.28;29.08;;;;;;;-2.30;100.00;101356.97;5028477;28;22041;-76
2024/01/19 05:20:23;;;;;;;97.97;31.50;;;;;;;-2.28;100.00;101350.13;5028968;28;20048;-76
2024/01/19 05:22:48;;;;;;;96.88;29.52;;;;;;;-2.28;100.00;101353.50;5029180;28;20037;-75
2024/01/19 05:25:18;;;;;;;87.57;30.13;;;;;;;-2.38;100.00;101363.16;5031064;28;20052;-75
2024/01/19 05:27:44;;;;;;;98.22;30.40;;;;;;;-2.33;100.00;101368.09;5030042;28;20032;-76
2024/01/19 05:30:11;;;;;;;92.88;29.25;;;;;;;-2.36;100.00;101376.63;5029616;28;20048;-76
2024/01/19 05:32:37;;;;;;;102.13;30.85;;;;;;;-2.37;100.00;101379.25;5029775;28;20029;-76
2024/01/19 05:35:02;;;;;;;101.38;30.88;;;;;;;-2.32;100.00;101379.06;5009963;28;20033;-76
2024/01/19 05:37:28;;;;;;;92.50;30.40;;;;;;;-2.22;100.00;101386.28;5010601;28;20026;-76
2024/01/19 05:39:53;;;;;;;90.57;32.28;;;;;;;-2.26;100.00;101386.44;5011296;28;20037;-75
2024/01/19 05:42:19;;;;;;;92.25;29.40;;;;;;;-2.26;100.00;101386.44;5026322;28;20036;-76
2024/01/19 05:44:45;;;;;;;84.75;28.08;;;;;;;-2.26;100.00;101394.06;5029039;28;20037;-75
2024/01/19 05:47:11;;;;;;;83.25;28.30;;;;;;;-2.31;100.00;101396.81;5015856;28;20460;-75
2024/01/19 05:49:37;;;;;;;77.22;27.77;;;;;;;-2.36;100.00;101396.16;5027918;28;20033;-76
2024/01/19 05:52:03;;;;;;;74.03;27.65;;;;;;;-2.35;100.00;101401.16;5027202;28;20021;-75
2024/01/19 05:54:28;;;;;;;86.55;26.88;;;;;;;-2.28;100.00;101406.00;4995299;28;20144;-75
2024/01/19 05:56:53;;;;;;;81.25;27.45;;;;;;;-2.28;100.00;101404.31;5009325;28;20030;-75
2024/01/19 05:59:19;;;;;;;87.25;27.67;;;;;;;-2.37;100.00;101408.03;5024984;28;20450;-75
2024/01/19 06:01:45;;;;;;;78.00;27.00;;;;;;;-2.28;100.00;101414.47;5010219;28;20087;-75
2024/01/19 06:04:10;;;;;;;94.93;28.10;;;;;;;-2.25;100.00;101416.88;5023928;28;20137;-75
2024/01/19 06:06:36;;;;;;;77.75;27.55;;;;;;;-2.26;100.00;101422.88;5008322;28;20029;-76
2024/01/19 06:09:02;;;;;;;82.78;27.48;;;;;;;-2.28;100.00;101417.03;5011143;28;20048;-76
2024/01/19 06:11:27;;;;;;;69.45;25.83;;;;;;;-2.28;100.00;101418.72;5027817;28;20057;-76
2024/01/19 06:13:53;;;;;;;73.90;26.15;;;;;;;-2.36;100.00;101427.44;5011990;28;20045;-77
2024/01/19 06:16:18;;;;;;;71.20;26.73;;;;;;;-2.49;100.00;101431.31;5010991;28;20045;-76
2024/01/19 06:18:44;;;;;;;72.97;28.02;;;;;;;-2.42;100.00;101432.75;5004608;28;20042;-76
2024/01/19 06:21:12;;;;;;;74.95;26.40;;;;;;;-2.45;100.00;101432.03;5026797;28;20107;-75
2024/01/19 06:23:38;;;;;;;67.32;25.38;;;;;;;-2.46;100.00;101440.56;5003645;28;20041;-76
2024/01/19 06:26:10;;;;;;;76.70;26.77;;;;;;;-2.52;100.00;101450.94;5009219;28;20045;-76
2024/01/19 06:28:36;;;;;;;67.70;26.17;;;;;;;-2.38;100.00;101461.44;5026648;28;20045;-75
2024/01/19 06:31:03;;;;;;;67.82;24.35;;;;;;;-2.49;100.00;101458.44;5025957;28;20419;-76
2024/01/19 06:33:29;;;;;;;80.30;25.45;;;;;;;-2.47;100.00;101466.84;5008121;28;20116;-76
2024/01/19 06:35:54;;;;;;;71.78;27.25;;;;;;;-2.44;100.00;101467.56;5025559;28;20025;-75
2024/01/19 06:38:20;;;;;;;66.57;26.58;;;;;;;-2.47;100.00;101467.66;5027743;28;20033;-76
2024/01/19 06:40:46;;;;;;;71.20;25.67;;;;;;;-2.55;100.00;101478.09;5010785;28;20041;-75
2024/01/19 06:43:12;;;;;;;75.28;25.20;;;;;;;-2.57;100.00;101482.41;5011412;28;20048;-75
2024/01/19 06:45:37;;;;;;;60.55;24.90;;;;;;;-2.57;100.00;101472.25;5008782;28;20037;-75
2024/01/19 06:48:03;;;;;;;69.03;25.38;;;;;;;-2.55;100.00;101469.66;5026604;28;20430;-76
2024/01/19 06:50:29;;;;;;;68.43;25.42;;;;;;;-2.47;100.00;101484.63;5013783;28;20026;-76
2024/01/19 06:52:54;;;;;;;58.53;23.60;;;;;;;-2.54;100.00;101484.03;5024953;28;20022;-75
2024/01/19 06:55:23;;;;;;;68.32;25.40;;;;;;;-2.65;100.00;101481.03;5026769;28;20044;-75
2024/01/19 06:57:48;;;;;;;77.32;25.05;;;;;;;-2.65;100.00;101492.03;4993194;28;20029;-75
2024/01/19 07:00:17;;;;;;;71.20;24.70;;;;;;;-2.64;100.00;101491.13;5025929;28;20091;-76
2024/01/19 07:02:42;;;;;;;59.97;24.35;;;;;;;-2.60;100.00;101499.47;5023309;28;20484;-75
2024/01/19 07:05:08;;;;;;;63.83;25.10;;;;;;;-2.57;100.00;101499.38;5026148;28;20195;-75
2024/01/19 07:07:33;;;;;;;60.72;24.95;;;;;;;-2.59;100.00;101501.94;5021978;28;20026;-78
2024/01/19 07:09:59;;;;;;;67.32;24.35;;;;;;;-2.56;100.00;101499.31;5009963;28;20376;-76
2024/01/19 07:12:24;;;;;;;59.13;23.55;;;;;;;-2.52;100.00;101505.13;5010266;28;20399;-76
2024/01/19 07:14:53;;;;;;;62.65;26.35;;;;;;;-2.56;100.00;101511.19;5026333;28;20035;-76
2024/01/19 07:17:18;;;;;;;60.63;23.35;;;;;;;-2.62;100.00;101512.25;5010465;28;20048;-76
2024/01/19 07:19:43;;;;;;;62.22;24.75;;;;;;;-2.64;100.00;101503.81;5027717;28;20411;-76
2024/01/19 07:22:09;;;;;;;65.35;24.70;;;;;;;-2.63;100.00;101512.28;5026386;28;20030;-76
2024/01/19 07:24:35;;;;;;;62.38;24.42;;;;;;;-2.59;100.00;101522.28;5025995;28;20100;-76
2024/01/19 07:27:02;;;;;;;60.10;25.55;;;;;;;-2.65;100.00;101524.22;5025916;28;20028;-75
2024/01/19 07:29:29;;;;;;;62.42;25.65;;;;;;;-2.67;100.00;101524.25;5009539;28;20033;-75
2024/01/19 07:31:55;;;;;;;60.22;23.50;;;;;;;-2.75;100.00;101529.59;5008480;28;20029;-76
2024/01/19 07:34:20;;;;;;;66.63;24.38;;;;;;;-2.78;100.00;101541.56;5009575;28;20030;-75
2024/01/19 07:36:46;;;;;;;62.88;26.00;;;;;;;-2.84;100.00;101542.59;5024126;28;20091;-75
2024/01/19 07:39:11;;;;;;;72.30;25.33;;;;;;;-2.86;100.00;101546.91;5023349;28;20038;-76
2024/01/19 07:41:37;;;;;;;79.63;26.80;;;;;;;-2.78;100.00;101547.47;5007002;28;20048;-76
2024/01/19 07:44:02;;;;;;;63.75;25.77;;;;;;;-2.58;100.00;101548.47;5026430;28;20503;-76
2024/01/19 07:46:28;;;;;;;64.28;24.50;;;;;;;-2.70;100.00;101562.44;5005669;28;20384;-76
2024/01/19 07:48:53;;;;;;;59.60;24.33;;;;;;;-2.63;100.00;101563.06;5008249;28;20044;-75
2024/01/19 07:51:19;;;;;;;63.60;25.83;;;;;;;-2.73;100.00;101572.72;5025862;28;20038;-75
2024/01/19 07:53:45;;;;;;;66.97;24.92;;;;;;;-2.74;100.00;101586.28;5027950;28;20491;-75
2024/01/19 07:56:10;;;;;;;65.32;24.85;;;;;;;-2.74;100.00;101584.56;5005237;28;20088;-76
2024/01/19 07:58:36;;;;;;;67.07;25.50;;;;;;;-2.76;100.00;101591.41;4986717;28;20404;-76
2024/01/19 08:01:03;;;;;;;64.13;26.77;;;;;;;-2.64;100.00;101586.78;5023765;28;20033;-76
2024/01/19 08:03:29;;;;;;;67.05;26.15;;;;;;;-2.79;100.00;101585.59;5020529;28;20466;-76
2024/01/19 08:05:54;;;;;;;62.45;25.02;;;;;;;-2.80;100.00;101589.84;5026732;28;20037;-76
2024/01/19 08:08:19;;;;;;;64.35;25.05;;;;;;;-2.79;100.00;101601.69;5004923;28;20040;-76
2024/01/19 08:10:45;;;;;;;64.72;24.70;;;;;;;-2.69;100.00;101601.34;5028835;28;20415;-76
2024/01/19 08:13:12;;;;;;;63.33;25.65;;;;;;;-2.60;100.00;101603.59;5025741;28;20076;-76
2024/01/19 08:15:38;;;;;;;67.63;25.40;;;;;;;-2.51;100.00;101620.25;5014900;28;20029;-76
2024/01/19 08:18:04;;;;;;;65.28;24.95;;;;;;;-2.56;100.00;101621.22;5034782;28;20450;-75
2024/01/19 08:20:31;;;;;;;69.65;26.63;;;;;;;-2.56;100.00;101626.31;5032359;28;20377;-75
2024/01/19 08:22:57;;;;;;;70.03;27.73;;;;;;;-2.60;100.00;101627.28;5009760;28;20099;-76
2024/01/19 08:25:23;;;;;;;62.40;24.80;;;;;;;-2.62;100.00;101623.97;5013912;28;20033;-76
2024/01/19 08:27:49;;;;;;;72.07;27.00;;;;;;;-2.49;100.00;101624.38;5015359;28;20459;-76
2024/01/19 08:30:16;;;;;;;69.25;28.05;;;;;;;-2.49;100.00;101626.91;5032388;28;20041;-75
2024/01/19 08:32:41;;;;;;;68.93;27.88;;;;;;;-2.51;100.00;101633.75;5024190;28;20181;-76
2024/01/19 08:35:10;;;;;;;70.20;25.90;;;;;;;-2.30;100.00;101636.47;5009083;28;20104;-76
2024/01/19 08:37:37;;;;;;;65.97;25.85;;;;;;;-2.39;100.00;101637.63;5012623;28;20064;-75
2024/01/19 08:40:05;;;;;;;69.50;27.15;;;;;;;-2.21;100.00;101647.13;5038496;28;20044;-76
2024/01/19 08:42:31;;;;;;;70.35;26.27;;;;;;;-2.29;100.00;101644.03;5030737;28;20048;-75
2024/01/19 08:44:56;;;;;;;63.60;26.33;;;;;;;-2.25;100.00;101649.84;5031184;28;20068;-76
2024/01/19 08:47:22;;;;;;;63.38;26.02;;;;;;;-2.27;100.00;101654.97;5028728;28;20033;-76
2024/01/19 08:49:47;;;;;;;69.43;27.33;;;;;;;-2.25;100.00;101660.00;5026697;28;20068;-76
2024/01/19 08:52:13;;;;;;;71.03;25.20;;;;;;;-2.38;100.00;101668.03;5031670;28;20082;-76
2024/01/19 08:54:38;;;;;;;69.43;28.63;;;;;;;-2.32;100.00;101667.00;5031448;28;20103;-76
2024/01/19 08:57:04;;;;;;;72.10;26.77;;;;;;;-2.29;100.00;101668.63;5012214;28;20042;-76
2024/01/19 08:59:29;;;;;;;72.15;26.38;;;;;;;-2.21;100.00;101671.72;5017418;28;20152;-76
2024/01/19 09:01:55;;;;;;;67.30;26.48;;;;;;;-2.08;100.00;101679.75;5032518;28;20270;-76
2024/01/19 09:04:21;;;;;;;64.72;26.45;;;;;;;-2.10;100.00;101669.63;5011628;28;20033;-75
2024/01/19 09:06:46;;;;;;;62.20;26.15;;;;;;;-2.11;100.00;101683.25;5013363;28;20044;-76
2024/01/19 09:09:12;;;;;;;64.00;26.98;;;;;;;-2.12;100.00;101676.50;5028550;28;20041;-75
2024/01/19 09:11:39;;;;;;;67.32;24.65;;;;;;;-2.04;100.00;101687.22;5031159;28;20076;-75
2024/01/19 09:14:06;;;;;;;70.00;26.90;;;;;;;-2.00;100.00;101681.16;5029478;28;20052;-75
2024/01/19 09:16:32;;;;;;;72.72;25.92;;;;;;;-1.86;100.00;101683.22;5017235;28;20121;-75
2024/01/19 09:18:58;;;;;;;73.47;27.70;;;;;;;-1.89;100.00;101690.13;5026920;28;20113;-76
2024/01/19 09:21:24;;;;;;;66.32;25.75;;;;;;;-1.92;100.00;101697.84;5003090;28;20053;-75
2024/01/19 09:23:49;;;;;;;69.32;25.27;;;;;;;-1.87;100.00;101706.16;5012839;28;21313;-75
2024/01/19 09:26:19;;;;;;;69.65;26.33;;;;;;;-1.82;100.00;101705.09;5029908;28;20492;-75
2024/01/19 09:28:44;;;;;;;72.40;26.27;;;;;;;-1.77;100.00;101712.59;5009925;28;20037;-76
2024/01/19 09:31:10;;;;;;;76.90;30.15;;;;;;;-1.70;100.00;101711.47;5031046;28;20032;-75
2024/01/19 09:33:35;;;;;;;63.35;25.40;;;;;;;-1.72;100.00;101722.59;5029108;28;20046;-75
2024/01/19 09:36:00;;;;;;;59.00;25.35;;;;;;;-1.65;100.00;101735.03;5011877;28;20037;-76
2024/01/19 09:38:26;;;;;;;61.53;25.20;;;;;;;-1.63;100.00;101735.78;5010572;28;20037;-75
2024/01/19 09:41:02;;;;;;;68.90;25.83;;;;;;;-1.62;100.00;101741.72;5030174;28;20029;-76
2024/01/19 09:43:32;;;;;;;71.63;25.83;;;;;;;-1.58;100.00;101743.28;5026230;28;20030;-75
2024/01/19 09:46:04;;;;;;;60.60;24.60;;;;;;;-1.51;100.00;101744.69;5030176;28;20029;-76
2024/01/19 09:48:39;;;;;;;65.83;25.77;;;;;;;-1.50;100.00;101746.38;5011834;28;20044;-76
2024/01/19 09:51:07;;;;;;;76.65;27.50;;;;;;;-1.39;100.00;101751.91;5012428;28;20049;-75
2024/01/19 09:53:40;;;;;;;64.40;25.08;;;;;;;-1.28;100.00;101748.13;5011638;28;20037;-75
2024/01/19 09:56:07;;;;;;;61.67;24.40;;;;;;;-1.27;100.00;101752.34;5011923;28;20037;-75
2024/01/19 09:58:33;;;;;;;71.65;25.13;;;;;;;-1.19;100.00;101760.53;5029687;28;20095;-76
2024/01/19 10:01:00;;;;;;;58.75;23.80;;;;;;;-1.25;100.00;101756.47;5007440;28;20045;-75
2024/01/19 10:03:27;;;;;;;61.42;24.85;;;;;;;-1.26;100.00;101761.63;5011462;28;20057;-75
2024/01/19 10:05:53;;;;;;;67.20;25.88;;;;;;;-1.28;100.00;101771.88;5031838;28;20037;-75
2024/01/19 10:08:19;;;;;;;61.20;25.17;;;;;;;-1.37;100.00;101772.22;5025272;28;20034;-75
2024/01/19 10:10:45;;;;;;;62.38;24.77;;;;;;;-1.21;100.00;101772.47;5011749;28;20381;-75
2024/01/19 10:13:11;;;;;;;60.38;23.80;;;;;;;-1.08;100.00;101778.78;5010815;28;20048;-74
2024/01/19 10:15:36;;;;;;;61.60;24.30;;;;;;;-1.03;100.00;101781.16;5011134;28;20041;-75
2024/01/19 10:18:05;;;;;;;49.45;21.88;;;;;;;-1.04;100.00;101784.59;5028713;28;20396;-75
2024/01/19 10:20:31;;;;;;;58.10;23.23;;;;;;;-0.86;100.00;101794.09;5010666;28;20042;-75
2024/01/19 10:22:56;;;;;;;59.42;23.95;;;;;;;-0.86;100.00;101793.25;5026694;28;20041;-75
2024/01/19 10:25:22;;;;;;;55.80;23.40;;;;;;;-0.80;100.00;101795.56;5013944;28;20041;-75
2024/01/19 10:27:52;;;;;;;53.85;23.17;;;;;;;-0.83;100.00;101800.78;5020490;28;20032;-75
2024/01/19 10:30:21;;;;;;;60.95;23.98;;;;;;;-0.95;100.00;101798.69;5023791;28;20038;-76
2024/01/19 10:32:48;;;;;;;62.80;23.98;;;;;;;-0.96;100.00;101807.22;5027401;28;20021;-75
2024/01/19 10:35:21;;;;;;;56.47;22.60;;;;;;;-0.91;100.00;101818.06;5012216;28;20029;-75
2024/01/19 10:37:48;;;;;;;53.00;23.27;;;;;;;-0.79;100.00;101809.97;5008198;28;20530;-75
2024/01/19 10:40:26;;;;;;;52.97;22.48;;;;;;;-0.62;100.00;101815.25;5031098;28;20120;-75
2024/01/19 10:42:56;;;;;;;50.03;21.10;;;;;;;-0.51;100.00;101819.09;5024814;28;20403;-75
2024/01/19 10:45:29;;;;;;;60.70;23.88;;;;;;;-0.48;100.00;101819.00;5007320;28;20120;-75
2024/01/19 10:48:00;;;;;;;52.17;22.35;;;;;;;-0.44;100.00;101823.88;5028259;28;20033;-75
2024/01/19 10:50:28;;;;;;;55.83;22.23;;;;;;;-0.45;100.00;101832.44;5010783;28;20057;-75
2024/01/19 10:52:55;;;;;;;46.38;21.27;;;;;;;-0.37;100.00;101831.31;5029125;28;20112;-75
2024/01/19 10:55:24;;;;;;;55.10;23.50;;;;;;;-0.45;100.00;101839.28;5011805;28;20037;-76